Terminal Aerodrome Forecast
Issued by NWS

Home | Current Version | Previous Version | Text Only | Print | Product List | Glossary On
Versions: 1 2 3 4 5 6 7 8 9 10 11 12 13 14 15 16 17 18 19 20 21 22
000
FTUS43 KLSX 260200 AAB
TAFUIN
TAF AMD
KUIN 260220Z 2602/2624 11007KT 2SM -SN OVC020
     FM260300 07010KT 2SM -SN OVC012
     FM260500 05012G20KT 1SM -SN OVC008
     FM261000 36015G25KT 6SM -SHSN OVC015
     FM262200 34013KT P6SM BKN020=

USA.gov is the U.S. government's official web portal to all federal, state and local government web resources and services.